sensor_id;sensor_type;location;lat;lon;timestamp;P1;durP1;ratioP1;P2;durP2;ratioP2
76296;SDS011;65104;52.994;6.552;2023-07-22T00:01:05;7.88;;;3.70;;
76296;SDS011;65104;52.994;6.552;2023-07-22T00:03:30;10.20;;;3.83;;
76296;SDS011;65104;52.994;6.552;2023-07-22T00:06:08;10.02;;;4.38;;
76296;SDS011;65104;52.994;6.552;2023-07-22T00:08:35;8.18;;;4.20;;
76296;SDS011;65104;52.994;6.552;2023-07-22T00:11:02;9.75;;;3.60;;
76296;SDS011;65104;52.994;6.552;2023-07-22T00:13:28;10.23;;;3.90;;
76296;SDS011;65104;52.994;6.552;2023-07-22T00:15:54;8.95;;;3.92;;
76296;SDS011;65104;52.994;6.552;2023-07-22T00:18:19;9.23;;;3.50;;
76296;SDS011;65104;52.994;6.552;2023-07-22T00:20:45;9.73;;;4.63;;
76296;SDS011;65104;52.994;6.552;2023-07-22T00:23:10;6.93;;;3.40;;
76296;SDS011;65104;52.994;6.552;2023-07-22T00:25:36;9.50;;;4.22;;
76296;SDS011;65104;52.994;6.552;2023-07-22T00:28:01;9.23;;;4.15;;
76296;SDS011;65104;52.994;6.552;2023-07-22T00:30:26;7.60;;;3.47;;
76296;SDS011;65104;52.994;6.552;2023-07-22T00:32:53;10.00;;;3.85;;
76296;SDS011;65104;52.994;6.552;2023-07-22T00:35:19;11.88;;;4.45;;
76296;SDS011;65104;52.994;6.552;2023-07-22T00:37:44;7.85;;;3.80;;
76296;SDS011;65104;52.994;6.552;2023-07-22T00:40:10;7.25;;;3.42;;
76296;SDS011;65104;52.994;6.552;2023-07-22T00:42:39;7.82;;;3.95;;
76296;SDS011;65104;52.994;6.552;2023-07-22T00:45:04;8.60;;;3.85;;
76296;SDS011;65104;52.994;6.552;2023-07-22T00:47:31;7.25;;;3.50;;
76296;SDS011;65104;52.994;6.552;2023-07-22T00:50:05;9.52;;;3.83;;
76296;SDS011;65104;52.994;6.552;2023-07-22T00:52:35;8.27;;;3.88;;
76296;SDS011;65104;52.994;6.552;2023-07-22T00:55:02;9.88;;;3.95;;
76296;SDS011;65104;52.994;6.552;2023-07-22T00:57:28;9.52;;;3.60;;
76296;SDS011;65104;52.994;6.552;2023-07-22T00:59:54;9.88;;;4.03;;
76296;SDS011;65104;52.994;6.552;2023-07-22T01:02:20;9.07;;;4.22;;
76296;SDS011;65104;52.994;6.552;2023-07-22T01:04:45;7.03;;;3.53;;
76296;SDS011;65104;52.994;6.552;2023-07-22T01:07:11;8.13;;;4.63;;
76296;SDS011;65104;52.994;6.552;2023-07-22T01:09:38;7.53;;;4.18;;
76296;SDS011;65104;52.994;6.552;2023-07-22T01:12:06;7.35;;;4.22;;
76296;SDS011;65104;52.994;6.552;2023-07-22T01:14:33;9.98;;;3.97;;
76296;SDS011;65104;52.994;6.552;2023-07-22T01:17:01;7.63;;;4.03;;
76296;SDS011;65104;52.994;6.552;2023-07-22T01:19:28;9.73;;;4.10;;
76296;SDS011;65104;52.994;6.552;2023-07-22T01:21:53;7.45;;;4.05;;
76296;SDS011;65104;52.994;6.552;2023-07-22T01:24:20;8.18;;;4.05;;
76296;SDS011;65104;52.994;6.552;2023-07-22T01:26:46;9.23;;;4.18;;
76296;SDS011;65104;52.994;6.552;2023-07-22T01:29:12;8.02;;;3.72;;
76296;SDS011;65104;52.994;6.552;2023-07-22T01:31:38;8.80;;;4.22;;
76296;SDS011;65104;52.994;6.552;2023-07-22T01:34:04;5.57;;;3.38;;
76296;SDS011;65104;52.994;6.552;2023-07-22T01:36:30;4.78;;;2.83;;
76296;SDS011;65104;52.994;6.552;2023-07-22T01:38:55;8.05;;;4.10;;
76296;SDS011;65104;52.994;6.552;2023-07-22T01:41:20;9.90;;;4.68;;
76296;SDS011;65104;52.994;6.552;2023-07-22T01:43:46;9.55;;;4.15;;
76296;SDS011;65104;52.994;6.552;2023-07-22T01:46:11;7.88;;;3.55;;
76296;SDS011;65104;52.994;6.552;2023-07-22T01:48:37;6.07;;;3.42;;
76296;SDS011;65104;52.994;6.552;2023-07-22T01:51:02;8.38;;;4.07;;
76296;SDS011;65104;52.994;6.552;2023-07-22T01:53:28;8.52;;;3.58;;
76296;SDS011;65104;52.994;6.552;2023-07-22T01:55:54;10.13;;;4.13;;
76296;SDS011;65104;52.994;6.552;2023-07-22T01:58:19;7.32;;;3.60;;
76296;SDS011;65104;52.994;6.552;2023-07-22T02:00:49;8.30;;;3.65;;
76296;SDS011;65104;52.994;6.552;2023-07-22T02:03:15;7.22;;;3.03;;
76296;SDS011;65104;52.994;6.552;2023-07-22T02:05:40;7.82;;;4.22;;
76296;SDS011;65104;52.994;6.552;2023-07-22T02:08:06;7.57;;;3.58;;
76296;SDS011;65104;52.994;6.552;2023-07-22T02:10:31;8.00;;;3.83;;
76296;SDS011;65104;52.994;6.552;2023-07-22T02:12:56;7.30;;;3.88;;
76296;SDS011;65104;52.994;6.552;2023-07-22T02:15:22;7.95;;;3.10;;
76296;SDS011;65104;52.994;6.552;2023-07-22T02:17:49;8.65;;;4.00;;
76296;SDS011;65104;52.994;6.552;2023-07-22T02:20:14;7.72;;;3.65;;
76296;SDS011;65104;52.994;6.552;2023-07-22T02:22:40;7.00;;;3.72;;
76296;SDS011;65104;52.994;6.552;2023-07-22T02:25:05;6.25;;;3.88;;
76296;SDS011;65104;52.994;6.552;2023-07-22T02:27:31;8.27;;;3.75;;
76296;SDS011;65104;52.994;6.552;2023-07-22T02:29:57;8.40;;;3.45;;
76296;SDS011;65104;52.994;6.552;2023-07-22T02:32:22;9.93;;;4.05;;
76296;SDS011;65104;52.994;6.552;2023-07-22T02:34:47;10.45;;;3.97;;
76296;SDS011;65104;52.994;6.552;2023-07-22T02:37:13;7.32;;;3.85;;
76296;SDS011;65104;52.994;6.552;2023-07-22T02:39:38;8.20;;;3.55;;
76296;SDS011;65104;52.994;6.552;2023-07-22T02:42:03;9.15;;;3.92;;
76296;SDS011;65104;52.994;6.552;2023-07-22T02:44:29;11.65;;;4.43;;
76296;SDS011;65104;52.994;6.552;2023-07-22T02:46:54;9.25;;;4.03;;
76296;SDS011;65104;52.994;6.552;2023-07-22T02:49:20;13.20;;;4.28;;
76296;SDS011;65104;52.994;6.552;2023-07-22T02:51:45;7.53;;;3.60;;
76296;SDS011;65104;52.994;6.552;2023-07-22T02:54:10;7.28;;;3.90;;
76296;SDS011;65104;52.994;6.552;2023-07-22T02:56:36;9.43;;;4.55;;
76296;SDS011;65104;52.994;6.552;2023-07-22T02:59:01;12.63;;;4.07;;
76296;SDS011;65104;52.994;6.552;2023-07-22T03:01:26;8.35;;;3.67;;
76296;SDS011;65104;52.994;6.552;2023-07-22T03:03:53;7.07;;;3.40;;
76296;SDS011;65104;52.994;6.552;2023-07-22T03:06:18;6.63;;;3.10;;
76296;SDS011;65104;52.994;6.552;2023-07-22T03:08:44;7.80;;;3.90;;
76296;SDS011;65104;52.994;6.552;2023-07-22T03:11:09;9.65;;;4.47;;
76296;SDS011;65104;52.994;6.552;2023-07-22T03:13:34;8.45;;;3.83;;
76296;SDS011;65104;52.994;6.552;2023-07-22T03:16:00;6.78;;;3.58;;
76296;SDS011;65104;52.994;6.552;2023-07-22T03:18:29;7.40;;;3.67;;
76296;SDS011;65104;52.994;6.552;2023-07-22T03:20:55;9.77;;;3.65;;
76296;SDS011;65104;52.994;6.552;2023-07-22T03:23:21;6.85;;;3.88;;
76296;SDS011;65104;52.994;6.552;2023-07-22T03:25:47;6.47;;;3.35;;
76296;SDS011;65104;52.994;6.552;2023-07-22T03:28:13;9.55;;;4.07;;
76296;SDS011;65104;52.994;6.552;2023-07-22T03:30:38;8.02;;;4.05;;
76296;SDS011;65104;52.994;6.552;2023-07-22T03:33:03;7.32;;;3.67;;
76296;SDS011;65104;52.994;6.552;2023-07-22T03:35:30;10.23;;;3.97;;
76296;SDS011;65104;52.994;6.552;2023-07-22T03:37:56;7.78;;;4.22;;
76296;SDS011;65104;52.994;6.552;2023-07-22T03:40:21;7.50;;;3.92;;
76296;SDS011;65104;52.994;6.552;2023-07-22T03:42:52;7.35;;;4.03;;
76296;SDS011;65104;52.994;6.552;2023-07-22T03:45:19;14.20;;;4.45;;
76296;SDS011;65104;52.994;6.552;2023-07-22T03:47:46;11.52;;;4.45;;
76296;SDS011;65104;52.994;6.552;2023-07-22T03:50:12;9.48;;;4.43;;
76296;SDS011;65104;52.994;6.552;2023-07-22T03:52:38;9.45;;;4.47;;
76296;SDS011;65104;52.994;6.552;2023-07-22T03:55:04;8.20;;;3.83;;
76296;SDS011;65104;52.994;6.552;2023-07-22T03:57:30;9.75;;;4.57;;
76296;SDS011;65104;52.994;6.552;2023-07-22T03:59:56;8.65;;;3.90;;
76296;SDS011;65104;52.994;6.552;2023-07-22T04:02:21;13.38;;;4.82;;
76296;SDS011;65104;52.994;6.552;2023-07-22T04:04:47;9.93;;;4.45;;
76296;SDS011;65104;52.994;6.552;2023-07-22T04:07:13;11.75;;;4.50;;
76296;SDS011;65104;52.994;6.552;2023-07-22T04:09:39;10.80;;;4.20;;
76296;SDS011;65104;52.994;6.552;2023-07-22T04:12:05;9.85;;;4.75;;
76296;SDS011;65104;52.994;6.552;2023-07-22T04:14:31;11.82;;;4.38;;
76296;SDS011;65104;52.994;6.552;2023-07-22T04:16:57;8.80;;;4.43;;
76296;SDS011;65104;52.994;6.552;2023-07-22T04:19:22;10.35;;;3.92;;
76296;SDS011;65104;52.994;6.552;2023-07-22T04:21:47;9.38;;;4.15;;
76296;SDS011;65104;52.994;6.552;2023-07-22T04:24:13;11.07;;;4.43;;
76296;SDS011;65104;52.994;6.552;2023-07-22T04:26:40;9.10;;;4.18;;
76296;SDS011;65104;52.994;6.552;2023-07-22T04:29:07;10.93;;;5.28;;
76296;SDS011;65104;52.994;6.552;2023-07-22T04:31:33;11.85;;;5.68;;
76296;SDS011;65104;52.994;6.552;2023-07-22T04:33:58;10.27;;;5.03;;
76296;SDS011;65104;52.994;6.552;2023-07-22T04:36:24;9.45;;;4.75;;
76296;SDS011;65104;52.994;6.552;2023-07-22T04:38:49;10.20;;;4.97;;
76296;SDS011;65104;52.994;6.552;2023-07-22T04:41:14;11.25;;;4.85;;
76296;SDS011;65104;52.994;6.552;2023-07-22T04:43:40;9.15;;;4.43;;
76296;SDS011;65104;52.994;6.552;2023-07-22T04:46:05;9.00;;;4.43;;
76296;SDS011;65104;52.994;6.552;2023-07-22T04:48:30;15.13;;;5.80;;
76296;SDS011;65104;52.994;6.552;2023-07-22T04:50:56;10.32;;;5.55;;
76296;SDS011;65104;52.994;6.552;2023-07-22T04:53:21;11.85;;;5.03;;
76296;SDS011;65104;52.994;6.552;2023-07-22T04:55:47;10.90;;;4.18;;
76296;SDS011;65104;52.994;6.552;2023-07-22T04:58:13;11.82;;;5.72;;
76296;SDS011;65104;52.994;6.552;2023-07-22T05:00:38;14.43;;;5.53;;
76296;SDS011;65104;52.994;6.552;2023-07-22T05:03:04;11.25;;;5.32;;
76296;SDS011;65104;52.994;6.552;2023-07-22T05:05:29;10.23;;;5.22;;
76296;SDS011;65104;52.994;6.552;2023-07-22T05:07:55;13.90;;;5.75;;
76296;SDS011;65104;52.994;6.552;2023-07-22T05:10:20;12.88;;;5.97;;
76296;SDS011;65104;52.994;6.552;2023-07-22T05:12:46;12.80;;;5.45;;
76296;SDS011;65104;52.994;6.552;2023-07-22T05:15:12;13.65;;;6.28;;
76296;SDS011;65104;52.994;6.552;2023-07-22T05:17:38;12.13;;;5.60;;
76296;SDS011;65104;52.994;6.552;2023-07-22T05:20:04;13.00;;;5.13;;
76296;SDS011;65104;52.994;6.552;2023-07-22T05:22:37;15.02;;;5.82;;
76296;SDS011;65104;52.994;6.552;2023-07-22T05:25:04;10.65;;;5.53;;
76296;SDS011;65104;52.994;6.552;2023-07-22T05:27:30;11.95;;;5.30;;
76296;SDS011;65104;52.994;6.552;2023-07-22T05:29:55;13.27;;;5.55;;
76296;SDS011;65104;52.994;6.552;2023-07-22T05:32:21;11.82;;;5.20;;
76296;SDS011;65104;52.994;6.552;2023-07-22T05:34:46;10.45;;;5.57;;
76296;SDS011;65104;52.994;6.552;2023-07-22T05:37:11;10.75;;;5.30;;
76296;SDS011;65104;52.994;6.552;2023-07-22T05:39:37;12.45;;;5.45;;
76296;SDS011;65104;52.994;6.552;2023-07-22T05:42:02;12.38;;;5.57;;
76296;SDS011;65104;52.994;6.552;2023-07-22T05:44:28;13.27;;;5.63;;
76296;SDS011;65104;52.994;6.552;2023-07-22T05:46:53;10.00;;;5.93;;
76296;SDS011;65104;52.994;6.552;2023-07-22T05:49:18;11.57;;;5.03;;
76296;SDS011;65104;52.994;6.552;2023-07-22T05:51:44;12.15;;;5.25;;
76296;SDS011;65104;52.994;6.552;2023-07-22T05:54:09;9.73;;;5.13;;
76296;SDS011;65104;52.994;6.552;2023-07-22T05:56:34;13.98;;;6.22;;
76296;SDS011;65104;52.994;6.552;2023-07-22T05:59:00;12.30;;;6.00;;
76296;SDS011;65104;52.994;6.552;2023-07-22T06:01:25;11.30;;;6.20;;
76296;SDS011;65104;52.994;6.552;2023-07-22T06:03:51;12.30;;;5.68;;
76296;SDS011;65104;52.994;6.552;2023-07-22T06:06:17;11.82;;;5.97;;
76296;SDS011;65104;52.994;6.552;2023-07-22T06:08:42;12.52;;;5.82;;
76296;SDS011;65104;52.994;6.552;2023-07-22T06:11:07;12.88;;;5.78;;
76296;SDS011;65104;52.994;6.552;2023-07-22T06:13:33;13.73;;;5.95;;
76296;SDS011;65104;52.994;6.552;2023-07-22T06:15:58;12.35;;;6.00;;
76296;SDS011;65104;52.994;6.552;2023-07-22T06:18:24;13.85;;;6.32;;
76296;SDS011;65104;52.994;6.552;2023-07-22T06:20:49;10.90;;;4.70;;
76296;SDS011;65104;52.994;6.552;2023-07-22T06:23:15;10.18;;;4.93;;
76296;SDS011;65104;52.994;6.552;2023-07-22T06:25:40;12.90;;;5.82;;
76296;SDS011;65104;52.994;6.552;2023-07-22T06:28:06;11.50;;;5.57;;
76296;SDS011;65104;52.994;6.552;2023-07-22T06:30:31;12.32;;;5.63;;
76296;SDS011;65104;52.994;6.552;2023-07-22T06:32:57;11.70;;;5.88;;
76296;SDS011;65104;52.994;6.552;2023-07-22T06:35:22;11.82;;;5.40;;
76296;SDS011;65104;52.994;6.552;2023-07-22T06:37:48;15.23;;;6.10;;
76296;SDS011;65104;52.994;6.552;2023-07-22T06:40:13;12.68;;;5.53;;
76296;SDS011;65104;52.994;6.552;2023-07-22T06:42:38;12.68;;;5.35;;
76296;SDS011;65104;52.994;6.552;2023-07-22T06:45:04;12.43;;;5.28;;
76296;SDS011;65104;52.994;6.552;2023-07-22T06:47:30;12.27;;;5.95;;
76296;SDS011;65104;52.994;6.552;2023-07-22T06:49:55;15.10;;;5.70;;
76296;SDS011;65104;52.994;6.552;2023-07-22T06:52:21;11.00;;;5.72;;
76296;SDS011;65104;52.994;6.552;2023-07-22T06:54:46;12.13;;;5.53;;
76296;SDS011;65104;52.994;6.552;2023-07-22T06:57:12;12.52;;;6.00;;
76296;SDS011;65104;52.994;6.552;2023-07-22T06:59:37;12.98;;;5.78;;
76296;SDS011;65104;52.994;6.552;2023-07-22T07:02:03;11.15;;;6.10;;
76296;SDS011;65104;52.994;6.552;2023-07-22T07:04:30;12.52;;;5.80;;
76296;SDS011;65104;52.994;6.552;2023-07-22T07:06:55;13.10;;;5.50;;
76296;SDS011;65104;52.994;6.552;2023-07-22T07:09:20;13.65;;;6.30;;
76296;SDS011;65104;52.994;6.552;2023-07-22T07:11:46;11.38;;;5.07;;
76296;SDS011;65104;52.994;6.552;2023-07-22T07:14:11;11.48;;;5.38;;
76296;SDS011;65104;52.994;6.552;2023-07-22T07:16:37;12.43;;;5.55;;
76296;SDS011;65104;52.994;6.552;2023-07-22T07:19:03;11.85;;;4.90;;
76296;SDS011;65104;52.994;6.552;2023-07-22T07:21:28;9.13;;;4.97;;
76296;SDS011;65104;52.994;6.552;2023-07-22T07:23:54;10.52;;;5.07;;
76296;SDS011;65104;52.994;6.552;2023-07-22T07:26:20;12.30;;;5.38;;
76296;SDS011;65104;52.994;6.552;2023-07-22T07:28:47;11.38;;;4.93;;
76296;SDS011;65104;52.994;6.552;2023-07-22T07:31:13;8.60;;;5.13;;
76296;SDS011;65104;52.994;6.552;2023-07-22T07:33:38;9.05;;;4.72;;
76296;SDS011;65104;52.994;6.552;2023-07-22T07:36:04;8.73;;;4.35;;
76296;SDS011;65104;52.994;6.552;2023-07-22T07:38:30;7.03;;;3.67;;
76296;SDS011;65104;52.994;6.552;2023-07-22T07:40:56;9.45;;;4.72;;
76296;SDS011;65104;52.994;6.552;2023-07-22T07:43:23;9.32;;;4.95;;
76296;SDS011;65104;52.994;6.552;2023-07-22T07:45:48;7.78;;;4.28;;
76296;SDS011;65104;52.994;6.552;2023-07-22T07:48:14;8.52;;;4.45;;
76296;SDS011;65104;52.994;6.552;2023-07-22T07:50:39;7.13;;;4.18;;
76296;SDS011;65104;52.994;6.552;2023-07-22T07:53:04;7.18;;;3.78;;
76296;SDS011;65104;52.994;6.552;2023-07-22T07:55:30;6.45;;;3.58;;
76296;SDS011;65104;52.994;6.552;2023-07-22T07:57:55;7.43;;;3.55;;
76296;SDS011;65104;52.994;6.552;2023-07-22T08:00:20;6.65;;;3.15;;
76296;SDS011;65104;52.994;6.552;2023-07-22T08:02:46;7.15;;;3.88;;
76296;SDS011;65104;52.994;6.552;2023-07-22T08:05:12;6.93;;;3.38;;
76296;SDS011;65104;52.994;6.552;2023-07-22T08:07:37;8.00;;;3.33;;
76296;SDS011;65104;52.994;6.552;2023-07-22T08:10:03;6.68;;;4.03;;
76296;SDS011;65104;52.994;6.552;2023-07-22T08:12:30;8.15;;;4.25;;
76296;SDS011;65104;52.994;6.552;2023-07-22T08:14:55;7.53;;;3.72;;
76296;SDS011;65104;52.994;6.552;2023-07-22T08:17:21;8.30;;;4.20;;
76296;SDS011;65104;52.994;6.552;2023-07-22T08:19:46;8.93;;;4.15;;
76296;SDS011;65104;52.994;6.552;2023-07-22T08:22:12;7.68;;;4.32;;
76296;SDS011;65104;52.994;6.552;2023-07-22T08:24:37;7.47;;;4.28;;
76296;SDS011;65104;52.994;6.552;2023-07-22T08:27:03;8.20;;;4.15;;
76296;SDS011;65104;52.994;6.552;2023-07-22T08:29:28;10.80;;;4.95;;
76296;SDS011;65104;52.994;6.552;2023-07-22T08:31:54;9.60;;;4.72;;
76296;SDS011;65104;52.994;6.552;2023-07-22T08:34:19;8.50;;;4.63;;
76296;SDS011;65104;52.994;6.552;2023-07-22T08:36:45;8.45;;;4.38;;
76296;SDS011;65104;52.994;6.552;2023-07-22T08:39:10;11.20;;;5.03;;
76296;SDS011;65104;52.994;6.552;2023-07-22T08:41:36;12.40;;;5.10;;
76296;SDS011;65104;52.994;6.552;2023-07-22T08:44:01;9.07;;;4.65;;
76296;SDS011;65104;52.994;6.552;2023-07-22T08:46:29;10.85;;;4.55;;
76296;SDS011;65104;52.994;6.552;2023-07-22T08:48:59;12.15;;;5.65;;
76296;SDS011;65104;52.994;6.552;2023-07-22T08:51:26;13.23;;;5.45;;
76296;SDS011;65104;52.994;6.552;2023-07-22T08:53:55;10.18;;;4.75;;
76296;SDS011;65104;52.994;6.552;2023-07-22T08:56:24;8.40;;;4.50;;
76296;SDS011;65104;52.994;6.552;2023-07-22T08:58:51;8.75;;;5.13;;
76296;SDS011;65104;52.994;6.552;2023-07-22T09:01:17;9.88;;;4.60;;
76296;SDS011;65104;52.994;6.552;2023-07-22T09:03:43;10.05;;;4.70;;
76296;SDS011;65104;52.994;6.552;2023-07-22T09:06:10;8.80;;;5.30;;
76296;SDS011;65104;52.994;6.552;2023-07-22T09:08:36;9.50;;;5.03;;
76296;SDS011;65104;52.994;6.552;2023-07-22T09:11:01;11.57;;;4.95;;
76296;SDS011;65104;52.994;6.552;2023-07-22T09:13:27;10.25;;;5.90;;
76296;SDS011;65104;52.994;6.552;2023-07-22T09:15:53;11.52;;;5.10;;
76296;SDS011;65104;52.994;6.552;2023-07-22T09:18:21;10.63;;;5.22;;
76296;SDS011;65104;52.994;6.552;2023-07-22T09:20:46;13.98;;;5.45;;
76296;SDS011;65104;52.994;6.552;2023-07-22T09:23:12;12.55;;;6.75;;
76296;SDS011;65104;52.994;6.552;2023-07-22T09:25:39;13.23;;;5.75;;
76296;SDS011;65104;52.994;6.552;2023-07-22T09:28:05;10.25;;;5.20;;
76296;SDS011;65104;52.994;6.552;2023-07-22T09:30:31;10.60;;;5.53;;
76296;SDS011;65104;52.994;6.552;2023-07-22T09:32:59;10.00;;;4.80;;
76296;SDS011;65104;52.994;6.552;2023-07-22T09:35:26;10.27;;;5.63;;
76296;SDS011;65104;52.994;6.552;2023-07-22T09:37:54;10.70;;;5.38;;
76296;SDS011;65104;52.994;6.552;2023-07-22T09:40:20;9.00;;;4.95;;
76296;SDS011;65104;52.994;6.552;2023-07-22T09:42:48;8.13;;;4.22;;
76296;SDS011;65104;52.994;6.552;2023-07-22T09:45:17;6.30;;;3.83;;
76296;SDS011;65104;52.994;6.552;2023-07-22T09:47:44;6.88;;;3.85;;
76296;SDS011;65104;52.994;6.552;2023-07-22T09:50:15;7.00;;;3.20;;
76296;SDS011;65104;52.994;6.552;2023-07-22T09:52:55;5.40;;;3.08;;
76296;SDS011;65104;52.994;6.552;2023-07-22T09:55:25;5.40;;;3.28;;
76296;SDS011;65104;52.994;6.552;2023-07-22T09:57:54;5.13;;;3.15;;
76296;SDS011;65104;52.994;6.552;2023-07-22T10:00:24;4.95;;;2.97;;
76296;SDS011;65104;52.994;6.552;2023-07-22T10:02:52;5.40;;;3.10;;
76296;SDS011;65104;52.994;6.552;2023-07-22T10:05:20;5.38;;;2.60;;
76296;SDS011;65104;52.994;6.552;2023-07-22T10:07:51;5.47;;;3.38;;
76296;SDS011;65104;52.994;6.552;2023-07-22T10:10:22;5.78;;;2.75;;
76296;SDS011;65104;52.994;6.552;2023-07-22T10:12:50;4.70;;;2.78;;
76296;SDS011;65104;52.994;6.552;2023-07-22T10:15:16;4.18;;;2.78;;
76296;SDS011;65104;52.994;6.552;2023-07-22T10:17:45;5.10;;;3.70;;
76296;SDS011;65104;52.994;6.552;2023-07-22T10:20:12;7.65;;;3.63;;
76296;SDS011;65104;52.994;6.552;2023-07-22T10:22:44;4.95;;;3.20;;
76296;SDS011;65104;52.994;6.552;2023-07-22T10:25:11;6.30;;;2.85;;
76296;SDS011;65104;52.994;6.552;2023-07-22T10:27:39;6.15;;;3.60;;
76296;SDS011;65104;52.994;6.552;2023-07-22T10:30:06;5.38;;;3.55;;
76296;SDS011;65104;52.994;6.552;2023-07-22T10:32:33;6.95;;;3.42;;
76296;SDS011;65104;52.994;6.552;2023-07-22T10:35:01;4.80;;;3.53;;
76296;SDS011;65104;52.994;6.552;2023-07-22T10:37:30;5.93;;;3.42;;
76296;SDS011;65104;52.994;6.552;2023-07-22T10:40:00;6.13;;;3.63;;
76296;SDS011;65104;52.994;6.552;2023-07-22T10:42:42;7.60;;;4.15;;
76296;SDS011;65104;52.994;6.552;2023-07-22T10:45:23;5.75;;;3.53;;
76296;SDS011;65104;52.994;6.552;2023-07-22T10:47:59;7.68;;;3.72;;
76296;SDS011;65104;52.994;6.552;2023-07-22T10:50:47;7.18;;;3.95;;
76296;SDS011;65104;52.994;6.552;2023-07-22T10:58:35;7.45;;;4.47;;
76296;SDS011;65104;52.994;6.552;2023-07-22T11:04:38;6.88;;;3.85;;
76296;SDS011;65104;52.994;6.552;2023-07-22T11:06:58;6.70;;;3.60;;
76296;SDS011;65104;52.994;6.552;2023-07-22T11:14:25;8.17;;;5.13;;
76296;SDS011;65104;52.994;6.552;2023-07-22T11:19:26;9.88;;;5.25;;
76296;SDS011;65104;52.994;6.552;2023-07-22T11:21:52;10.55;;;5.25;;
76296;SDS011;65104;52.994;6.552;2023-07-22T11:24:19;10.73;;;6.40;;
76296;SDS011;65104;52.994;6.552;2023-07-22T11:26:46;11.18;;;5.10;;
76296;SDS011;65104;52.994;6.552;2023-07-22T11:29:12;10.15;;;5.32;;
76296;SDS011;65104;52.994;6.552;2023-07-22T11:31:42;10.40;;;5.40;;
76296;SDS011;65104;52.994;6.552;2023-07-22T11:34:10;10.20;;;5.10;;
76296;SDS011;65104;52.994;6.552;2023-07-22T11:36:40;11.75;;;5.57;;
76296;SDS011;65104;52.994;6.552;2023-07-22T11:41:33;10.35;;;4.88;;
76296;SDS011;65104;52.994;6.552;2023-07-22T11:43:59;10.10;;;5.63;;
76296;SDS011;65104;52.994;6.552;2023-07-22T11:46:26;10.40;;;5.32;;
76296;SDS011;65104;52.994;6.552;2023-07-22T11:48:53;11.45;;;6.00;;
76296;SDS011;65104;52.994;6.552;2023-07-22T11:51:20;9.88;;;5.60;;
76296;SDS011;65104;52.994;6.552;2023-07-22T11:53:50;10.75;;;5.30;;
76296;SDS011;65104;52.994;6.552;2023-07-22T11:56:20;12.60;;;6.38;;
76296;SDS011;65104;52.994;6.552;2023-07-22T11:58:56;11.13;;;6.40;;
76296;SDS011;65104;52.994;6.552;2023-07-22T12:01:22;10.75;;;5.95;;
76296;SDS011;65104;52.994;6.552;2023-07-22T12:03:48;13.48;;;6.05;;
76296;SDS011;65104;52.994;6.552;2023-07-22T12:06:20;10.05;;;5.60;;
76296;SDS011;65104;52.994;6.552;2023-07-22T12:08:46;9.60;;;5.70;;
76296;SDS011;65104;52.994;6.552;2023-07-22T12:11:15;10.80;;;5.63;;
76296;SDS011;65104;52.994;6.552;2023-07-22T12:16:35;8.65;;;4.88;;
76296;SDS011;65104;52.994;6.552;2023-07-22T12:19:02;7.97;;;5.32;;
76296;SDS011;65104;52.994;6.552;2023-07-22T12:21:28;6.82;;;4.97;;
76296;SDS011;65104;52.994;6.552;2023-07-22T12:23:53;10.20;;;5.55;;
76296;SDS011;65104;52.994;6.552;2023-07-22T12:26:19;8.40;;;5.43;;
76296;SDS011;65104;52.994;6.552;2023-07-22T12:28:45;8.50;;;5.65;;
76296;SDS011;65104;52.994;6.552;2023-07-22T12:31:10;9.90;;;5.55;;
76296;SDS011;65104;52.994;6.552;2023-07-22T12:33:35;8.52;;;5.18;;
76296;SDS011;65104;52.994;6.552;2023-07-22T12:36:01;8.75;;;5.35;;
76296;SDS011;65104;52.994;6.552;2023-07-22T12:38:26;10.32;;;5.13;;
76296;SDS011;65104;52.994;6.552;2023-07-22T12:40:52;9.43;;;5.78;;
76296;SDS011;65104;52.994;6.552;2023-07-22T12:43:17;8.77;;;5.47;;
76296;SDS011;65104;52.994;6.552;2023-07-22T12:45:43;8.43;;;5.50;;
76296;SDS011;65104;52.994;6.552;2023-07-22T12:48:08;9.10;;;5.25;;
76296;SDS011;65104;52.994;6.552;2023-07-22T12:50:34;11.80;;;6.10;;
76296;SDS011;65104;52.994;6.552;2023-07-22T12:52:59;11.23;;;5.70;;
76296;SDS011;65104;52.994;6.552;2023-07-22T12:55:25;9.48;;;5.55;;
76296;SDS011;65104;52.994;6.552;2023-07-22T12:57:51;10.05;;;5.65;;
76296;SDS011;65104;52.994;6.552;2023-07-22T13:00:16;9.70;;;6.20;;
76296;SDS011;65104;52.994;6.552;2023-07-22T13:02:42;10.40;;;6.03;;
76296;SDS011;65104;52.994;6.552;2023-07-22T13:05:08;11.88;;;6.00;;
76296;SDS011;65104;52.994;6.552;2023-07-22T13:07:34;11.02;;;6.53;;
76296;SDS011;65104;52.994;6.552;2023-07-22T13:10:00;13.23;;;7.93;;
76296;SDS011;65104;52.994;6.552;2023-07-22T13:12:27;10.68;;;6.13;;
76296;SDS011;65104;52.994;6.552;2023-07-22T13:14:53;10.63;;;7.05;;
76296;SDS011;65104;52.994;6.552;2023-07-22T13:17:18;8.20;;;5.13;;
76296;SDS011;65104;52.994;6.552;2023-07-22T13:19:44;8.60;;;5.60;;
76296;SDS011;65104;52.994;6.552;2023-07-22T13:22:09;8.10;;;5.22;;
76296;SDS011;65104;52.994;6.552;2023-07-22T13:24:35;7.55;;;4.40;;
76296;SDS011;65104;52.994;6.552;2023-07-22T13:27:00;6.45;;;4.18;;
76296;SDS011;65104;52.994;6.552;2023-07-22T13:29:26;7.25;;;4.20;;
76296;SDS011;65104;52.994;6.552;2023-07-22T13:31:52;6.50;;;4.53;;
76296;SDS011;65104;52.994;6.552;2023-07-22T13:34:18;7.57;;;4.70;;
76296;SDS011;65104;52.994;6.552;2023-07-22T13:36:43;8.25;;;4.88;;
76296;SDS011;65104;52.994;6.552;2023-07-22T13:39:08;7.82;;;4.07;;
76296;SDS011;65104;52.994;6.552;2023-07-22T13:41:34;8.45;;;5.43;;
76296;SDS011;65104;52.994;6.552;2023-07-22T13:43:59;10.00;;;5.25;;
76296;SDS011;65104;52.994;6.552;2023-07-22T13:46:25;7.00;;;5.00;;
76296;SDS011;65104;52.994;6.552;2023-07-22T13:48:50;6.50;;;4.85;;
76296;SDS011;65104;52.994;6.552;2023-07-22T13:51:15;7.22;;;5.38;;
76296;SDS011;65104;52.994;6.552;2023-07-22T13:53:41;8.70;;;5.22;;
76296;SDS011;65104;52.994;6.552;2023-07-22T13:56:06;7.85;;;5.15;;
76296;SDS011;65104;52.994;6.552;2023-07-22T13:58:32;6.78;;;4.28;;
76296;SDS011;65104;52.994;6.552;2023-07-22T14:00:57;8.63;;;3.70;;
76296;SDS011;65104;52.994;6.552;2023-07-22T14:03:22;6.03;;;3.97;;
76296;SDS011;65104;52.994;6.552;2023-07-22T14:05:48;6.97;;;4.40;;
76296;SDS011;65104;52.994;6.552;2023-07-22T14:08:13;7.07;;;4.47;;
76296;SDS011;65104;52.994;6.552;2023-07-22T14:10:39;5.47;;;3.63;;
76296;SDS011;65104;52.994;6.552;2023-07-22T14:13:04;4.70;;;3.70;;
76296;SDS011;65104;52.994;6.552;2023-07-22T14:15:29;6.28;;;4.03;;
76296;SDS011;65104;52.994;6.552;2023-07-22T14:17:55;7.93;;;3.63;;
76296;SDS011;65104;52.994;6.552;2023-07-22T14:20:20;7.07;;;3.90;;
76296;SDS011;65104;52.994;6.552;2023-07-22T14:22:46;6.13;;;3.85;;
76296;SDS011;65104;52.994;6.552;2023-07-22T14:25:14;6.35;;;4.03;;
76296;SDS011;65104;52.994;6.552;2023-07-22T14:27:41;5.82;;;4.07;;
76296;SDS011;65104;52.994;6.552;2023-07-22T14:30:07;5.55;;;3.80;;
76296;SDS011;65104;52.994;6.552;2023-07-22T14:32:33;6.80;;;3.92;;
76296;SDS011;65104;52.994;6.552;2023-07-22T14:34:58;6.60;;;3.80;;
76296;SDS011;65104;52.994;6.552;2023-07-22T14:37:24;8.05;;;4.63;;
76296;SDS011;65104;52.994;6.552;2023-07-22T14:39:49;6.10;;;4.00;;
76296;SDS011;65104;52.994;6.552;2023-07-22T14:42:15;11.63;;;5.88;;
76296;SDS011;65104;52.994;6.552;2023-07-22T14:44:40;7.03;;;4.57;;
76296;SDS011;65104;52.994;6.552;2023-07-22T14:47:06;9.63;;;5.03;;
76296;SDS011;65104;52.994;6.552;2023-07-22T14:49:31;6.28;;;4.63;;
76296;SDS011;65104;52.994;6.552;2023-07-22T14:51:57;7.50;;;4.65;;
76296;SDS011;65104;52.994;6.552;2023-07-22T14:54:22;6.25;;;4.97;;
76296;SDS011;65104;52.994;6.552;2023-07-22T14:56:48;7.32;;;4.55;;
76296;SDS011;65104;52.994;6.552;2023-07-22T14:59:14;8.30;;;4.85;;